sensor_id;sensor_type;location;lat;lon;timestamp;pressure;altitude;pressure_sealevel;temperature;humidity
70053;BME280;57398;52.032;4.376;2023-12-04T00:02:03;99522.63;;;0.19;100.00
70053;BME280;57398;52.032;4.376;2023-12-04T00:04:52;99524.19;;;0.20;100.00
70053;BME280;57398;52.032;4.376;2023-12-04T00:07:40;99516.19;;;0.23;100.00
70053;BME280;57398;52.032;4.376;2023-12-04T00:10:28;99523.41;;;0.19;100.00
70053;BME280;57398;52.032;4.376;2023-12-04T00:13:16;99521.66;;;0.20;100.00
70053;BME280;57398;52.032;4.376;2023-12-04T00:16:05;99523.41;;;0.19;100.00
70053;BME280;57398;52.032;4.376;2023-12-04T00:18:53;99536.81;;;0.22;100.00
70053;BME280;57398;52.032;4.376;2023-12-04T00:21:43;99535.03;;;0.22;100.00
70053;BME280;57398;52.032;4.376;2023-12-04T00:24:32;99525.59;;;0.23;100.00
70053;BME280;57398;52.032;4.376;2023-12-04T00:27:20;99533.47;;;0.21;100.00
70053;BME280;57398;52.032;4.376;2023-12-04T00:30:13;99530.28;;;0.19;100.00
70053;BME280;57398;52.032;4.376;2023-12-04T00:33:01;99538.56;;;0.21;100.00
70053;BME280;57398;52.032;4.376;2023-12-04T00:35:49;99536.00;;;0.21;100.00
70053;BME280;57398;52.032;4.376;2023-12-04T00:38:39;99544.22;;;0.16;100.00
70053;BME280;57398;52.032;4.376;2023-12-04T00:41:27;99543.84;;;0.19;100.00
70053;BME280;57398;52.032;4.376;2023-12-04T00:44:15;99544.03;;;0.18;100.00
70053;BME280;57398;52.032;4.376;2023-12-04T00:47:03;99541.66;;;0.16;100.00
70053;BME280;57398;52.032;4.376;2023-12-04T00:49:51;99553.63;;;0.16;100.00
70053;BME280;57398;52.032;4.376;2023-12-04T00:52:39;99549.50;;;0.15;100.00
70053;BME280;57398;52.032;4.376;2023-12-04T00:55:28;99539.91;;;0.17;100.00
70053;BME280;57398;52.032;4.376;2023-12-04T00:58:17;99536.56;;;0.16;100.00
70053;BME280;57398;52.032;4.376;2023-12-04T01:01:05;99523.97;;;0.15;100.00
70053;BME280;57398;52.032;4.376;2023-12-04T01:03:53;99529.06;;;0.15;100.00
70053;BME280;57398;52.032;4.376;2023-12-04T01:06:41;99529.25;;;0.13;100.00
70053;BME280;57398;52.032;4.376;2023-12-04T01:09:29;99525.13;;;0.12;100.00
70053;BME280;57398;52.032;4.376;2023-12-04T01:12:19;99516.69;;;0.12;100.00
70053;BME280;57398;52.032;4.376;2023-12-04T01:15:08;99509.81;;;0.12;100.00
70053;BME280;57398;52.032;4.376;2023-12-04T01:17:56;99512.19;;;0.14;100.00
70053;BME280;57398;52.032;4.376;2023-12-04T01:20:47;99511.38;;;0.13;100.00
70053;BME280;57398;52.032;4.376;2023-12-04T01:23:35;99514.13;;;0.12;100.00
70053;BME280;57398;52.032;4.376;2023-12-04T01:26:23;99518.06;;;0.14;100.00
70053;BME280;57398;52.032;4.376;2023-12-04T01:29:12;99519.03;;;0.13;100.00
70053;BME280;57398;52.032;4.376;2023-12-04T01:32:00;99521.59;;;0.13;100.00
70053;BME280;57398;52.032;4.376;2023-12-04T01:34:48;99537.53;;;0.15;100.00
70053;BME280;57398;52.032;4.376;2023-12-04T01:37:37;99535.75;;;0.16;100.00
70053;BME280;57398;52.032;4.376;2023-12-04T01:40:26;99545.00;;;0.17;100.00
70053;BME280;57398;52.032;4.376;2023-12-04T01:43:14;99540.06;;;0.15;100.00
70053;BME280;57398;52.032;4.376;2023-12-04T01:46:04;99557.59;;;0.18;100.00
70053;BME280;57398;52.032;4.376;2023-12-04T01:48:53;99556.78;;;0.18;100.00
70053;BME280;57398;52.032;4.376;2023-12-04T01:51:42;99558.38;;;0.19;100.00
70053;BME280;57398;52.032;4.376;2023-12-04T01:54:31;99560.16;;;0.18;100.00
70053;BME280;57398;52.032;4.376;2023-12-04T01:57:19;99566.84;;;0.19;100.00
70053;BME280;57398;52.032;4.376;2023-12-04T02:00:08;99573.78;;;0.26;100.00
70053;BME280;57398;52.032;4.376;2023-12-04T02:03:00;99580.28;;;0.28;100.00
70053;BME280;57398;52.032;4.376;2023-12-04T02:05:50;99630.38;;;0.29;100.00
70053;BME280;57398;52.032;4.376;2023-12-04T02:08:42;99652.22;;;0.32;100.00
70053;BME280;57398;52.032;4.376;2023-12-04T02:11:30;99660.84;;;0.31;100.00
70053;BME280;57398;52.032;4.376;2023-12-04T02:14:18;99673.88;;;0.36;100.00
70053;BME280;57398;52.032;4.376;2023-12-04T02:17:08;99688.41;;;0.35;100.00
70053;BME280;57398;52.032;4.376;2023-12-04T02:19:58;99691.22;;;0.40;100.00
70053;BME280;57398;52.032;4.376;2023-12-04T02:22:46;99712.09;;;0.44;100.00
70053;BME280;57398;52.032;4.376;2023-12-04T02:25:35;99718.59;;;0.47;100.00
70053;BME280;57398;52.032;4.376;2023-12-04T02:28:25;99744.78;;;0.49;100.00
70053;BME280;57398;52.032;4.376;2023-12-04T02:31:16;99753.06;;;0.51;100.00
70053;BME280;57398;52.032;4.376;2023-12-04T02:34:06;99755.00;;;0.49;100.00
70053;BME280;57398;52.032;4.376;2023-12-04T02:36:55;99778.59;;;0.51;100.00
70053;BME280;57398;52.032;4.376;2023-12-04T02:39:44;99788.81;;;0.51;100.00
70053;BME280;57398;52.032;4.376;2023-12-04T02:42:34;99808.28;;;0.52;100.00
70053;BME280;57398;52.032;4.376;2023-12-04T02:45:22;99801.41;;;0.52;100.00
70053;BME280;57398;52.032;4.376;2023-12-04T02:48:10;99806.50;;;0.52;100.00
70053;BME280;57398;52.032;4.376;2023-12-04T02:50:58;99819.13;;;0.54;100.00
70053;BME280;57398;52.032;4.376;2023-12-04T02:53:46;99830.50;;;0.51;100.00
70053;BME280;57398;52.032;4.376;2023-12-04T02:56:34;99834.81;;;0.51;100.00
70053;BME280;57398;52.032;4.376;2023-12-04T02:59:23;99823.78;;;0.50;100.00
70053;BME280;57398;52.032;4.376;2023-12-04T03:02:11;99816.94;;;0.51;100.00
70053;BME280;57398;52.032;4.376;2023-12-04T03:04:59;99808.13;;;0.53;100.00
70053;BME280;57398;52.032;4.376;2023-12-04T03:07:47;99802.22;;;0.53;100.00
70053;BME280;57398;52.032;4.376;2023-12-04T03:10:35;99796.13;;;0.54;100.00
70053;BME280;57398;52.032;4.376;2023-12-04T03:13:23;99803.97;;;0.52;100.00
70053;BME280;57398;52.032;4.376;2023-12-04T03:16:16;99794.34;;;0.54;100.00
70053;BME280;57398;52.032;4.376;2023-12-04T03:19:04;99787.69;;;0.53;100.00
70053;BME280;57398;52.032;4.376;2023-12-04T03:21:53;99779.41;;;0.51;100.00
70053;BME280;57398;52.032;4.376;2023-12-04T03:24:41;99787.69;;;0.53;100.00
70053;BME280;57398;52.032;4.376;2023-12-04T03:27:29;99780.19;;;0.52;100.00
70053;BME280;57398;52.032;4.376;2023-12-04T03:30:17;99777.63;;;0.52;100.00
70053;BME280;57398;52.032;4.376;2023-12-04T03:33:08;99784.34;;;0.53;100.00
70053;BME280;57398;52.032;4.376;2023-12-04T03:35:59;99782.56;;;0.53;100.00
70053;BME280;57398;52.032;4.376;2023-12-04T03:38:47;99765.84;;;0.51;100.00
70053;BME280;57398;52.032;4.376;2023-12-04T03:41:35;99777.44;;;0.53;100.00
70053;BME280;57398;52.032;4.376;2023-12-04T03:44:23;99764.69;;;0.53;100.00
70053;BME280;57398;52.032;4.376;2023-12-04T03:47:11;99767.84;;;0.55;100.00
70053;BME280;57398;52.032;4.376;2023-12-04T03:50:04;99771.44;;;0.61;100.00
70053;BME280;57398;52.032;4.376;2023-12-04T03:52:52;99773.38;;;0.59;100.00
70053;BME280;57398;52.032;4.376;2023-12-04T03:55:40;99773.38;;;0.59;100.00
70053;BME280;57398;52.032;4.376;2023-12-04T03:58:28;99768.34;;;0.66;100.00
70053;BME280;57398;52.032;4.376;2023-12-04T04:01:16;99753.63;;;0.68;100.00
70053;BME280;57398;52.032;4.376;2023-12-04T04:04:04;99753.00;;;0.66;100.00
70053;BME280;57398;52.032;4.376;2023-12-04T04:06:54;99755.75;;;0.64;100.00
70053;BME280;57398;52.032;4.376;2023-12-04T04:09:42;99749.66;;;0.65;100.00
70053;BME280;57398;52.032;4.376;2023-12-04T04:12:30;99749.50;;;0.67;100.00
70053;BME280;57398;52.032;4.376;2023-12-04T04:15:19;99741.47;;;0.70;100.00
70053;BME280;57398;52.032;4.376;2023-12-04T04:18:07;99736.59;;;0.75;100.00
70053;BME280;57398;52.032;4.376;2023-12-04T04:20:55;99738.53;;;0.73;100.00
70053;BME280;57398;52.032;4.376;2023-12-04T04:23:44;99735.97;;;0.73;100.00
70053;BME280;57398;52.032;4.376;2023-12-04T04:26:32;99737.81;;;0.79;100.00
70053;BME280;57398;52.032;4.376;2023-12-04T04:29:21;99740.38;;;0.79;100.00
70053;BME280;57398;52.032;4.376;2023-12-04T04:32:08;99738.44;;;0.81;100.00
70053;BME280;57398;52.032;4.376;2023-12-04T04:35:00;99732.22;;;0.90;100.00
70053;BME280;57398;52.032;4.376;2023-12-04T04:37:48;99726.13;;;0.91;100.00
70053;BME280;57398;52.032;4.376;2023-12-04T04:40:39;99732.47;;;0.95;100.00
70053;BME280;57398;52.032;4.376;2023-12-04T04:43:30;99742.53;;;0.97;100.00
70053;BME280;57398;52.032;4.376;2023-12-04T04:46:19;99734.47;;;1.00;100.00
70053;BME280;57398;52.032;4.376;2023-12-04T04:49:07;99739.78;;;0.98;100.00
70053;BME280;57398;52.032;4.376;2023-12-04T04:51:55;99735.81;;;0.96;100.00
70053;BME280;57398;52.032;4.376;2023-12-04T04:54:43;99730.69;;;0.96;100.00
70053;BME280;57398;52.032;4.376;2023-12-04T04:57:33;99734.25;;;0.95;100.00
70053;BME280;57398;52.032;4.376;2023-12-04T05:00:21;99736.97;;;0.93;100.00
70053;BME280;57398;52.032;4.376;2023-12-04T05:03:09;99725.66;;;1.02;100.00
70053;BME280;57398;52.032;4.376;2023-12-04T05:05:57;99716.41;;;1.01;100.00
70053;BME280;57398;52.032;4.376;2023-12-04T05:08:45;99724.00;;;0.95;100.00
70053;BME280;57398;52.032;4.376;2023-12-04T05:11:33;99714.19;;;0.98;100.00
70053;BME280;57398;52.032;4.376;2023-12-04T05:14:22;99706.91;;;0.95;100.00
70053;BME280;57398;52.032;4.376;2023-12-04T05:17:10;99695.72;;;0.96;100.00
70053;BME280;57398;52.032;4.376;2023-12-04T05:19:59;99674.81;;;0.93;100.00
70053;BME280;57398;52.032;4.376;2023-12-04T05:22:47;99651.25;;;0.97;100.00
70053;BME280;57398;52.032;4.376;2023-12-04T05:25:35;99641.22;;;0.96;100.00
70053;BME280;57398;52.032;4.376;2023-12-04T05:28:34;99635.31;;;0.95;100.00
70053;BME280;57398;52.032;4.376;2023-12-04T05:31:23;99633.53;;;0.96;100.00
70053;BME280;57398;52.032;4.376;2023-12-04T05:34:12;99629.03;;;0.98;100.00
70053;BME280;57398;52.032;4.376;2023-12-04T05:37:00;99624.69;;;0.98;100.00
70053;BME280;57398;52.032;4.376;2023-12-04T05:39:48;99624.34;;;1.01;100.00
70053;BME280;57398;52.032;4.376;2023-12-04T05:42:36;99638.53;;;1.04;100.00
70053;BME280;57398;52.032;4.376;2023-12-04T05:45:24;99641.69;;;1.06;100.00
70053;BME280;57398;52.032;4.376;2023-12-04T05:48:13;99647.03;;;1.11;100.00
70053;BME280;57398;52.032;4.376;2023-12-04T05:51:01;99636.81;;;1.11;100.00
70053;BME280;57398;52.032;4.376;2023-12-04T05:53:49;99635.25;;;1.10;100.00
70053;BME280;57398;52.032;4.376;2023-12-04T05:56:37;99632.47;;;1.12;100.00
70053;BME280;57398;52.032;4.376;2023-12-04T05:59:25;99618.72;;;1.13;100.00
70053;BME280;57398;52.032;4.376;2023-12-04T06:02:13;99610.69;;;1.16;100.00
70053;BME280;57398;52.032;4.376;2023-12-04T06:05:04;99621.28;;;1.13;100.00
70053;BME280;57398;52.032;4.376;2023-12-04T06:07:52;99613.06;;;1.17;100.00
70053;BME280;57398;52.032;4.376;2023-12-04T06:10:40;99615.63;;;1.17;100.00
70053;BME280;57398;52.032;4.376;2023-12-04T06:13:28;99607.72;;;1.19;100.00
70053;BME280;57398;52.032;4.376;2023-12-04T06:16:16;99610.50;;;1.17;100.00
70053;BME280;57398;52.032;4.376;2023-12-04T06:19:04;99608.13;;;1.16;100.00
70053;BME280;57398;52.032;4.376;2023-12-04T06:21:54;99606.72;;;1.13;100.00
70053;BME280;57398;52.032;4.376;2023-12-04T06:24:43;99610.50;;;1.17;100.00
70053;BME280;57398;52.032;4.376;2023-12-04T06:27:31;99615.00;;;1.15;100.00
70053;BME280;57398;52.032;4.376;2023-12-04T06:30:21;99615.19;;;1.14;100.00
70053;BME280;57398;52.032;4.376;2023-12-04T06:33:09;99620.47;;;1.12;100.00
70053;BME280;57398;52.032;4.376;2023-12-04T06:36:00;99599.44;;;1.17;100.00
70053;BME280;57398;52.032;4.376;2023-12-04T06:38:51;99605.56;;;1.16;100.00
70053;BME280;57398;52.032;4.376;2023-12-04T06:41:41;99603.56;;;1.11;100.00
70053;BME280;57398;52.032;4.376;2023-12-04T06:44:30;99602.00;;;1.17;100.00
70053;BME280;57398;52.032;4.376;2023-12-04T06:47:22;99620.94;;;1.22;100.00
70053;BME280;57398;52.032;4.376;2023-12-04T06:50:10;99620.94;;;1.22;100.00
70053;BME280;57398;52.032;4.376;2023-12-04T06:52:58;99620.53;;;1.19;100.00
70053;BME280;57398;52.032;4.376;2023-12-04T06:55:48;99616.41;;;1.18;100.00
70053;BME280;57398;52.032;4.376;2023-12-04T06:58:36;99616.81;;;1.21;100.00
70053;BME280;57398;52.032;4.376;2023-12-04T07:01:24;99617.00;;;1.20;100.00
70053;BME280;57398;52.032;4.376;2023-12-04T07:04:13;99607.38;;;1.22;100.00
70053;BME280;57398;52.032;4.376;2023-12-04T07:07:01;99611.88;;;1.20;100.00
70053;BME280;57398;52.032;4.376;2023-12-04T07:09:52;99600.91;;;1.26;100.00
70053;BME280;57398;52.032;4.376;2023-12-04T07:12:41;99596.75;;;1.25;100.00
70053;BME280;57398;52.032;4.376;2023-12-04T07:15:29;99583.22;;;1.31;100.00
70053;BME280;57398;52.032;4.376;2023-12-04T07:18:17;99601.13;;;1.31;100.00
70053;BME280;57398;52.032;4.376;2023-12-04T07:21:06;99587.75;;;1.29;100.00
70053;BME280;57398;52.032;4.376;2023-12-04T07:23:54;99592.47;;;1.32;100.00
70053;BME280;57398;52.032;4.376;2023-12-04T07:26:42;99595.81;;;1.33;100.00
70053;BME280;57398;52.032;4.376;2023-12-04T07:29:31;99584.78;;;1.32;100.00
70053;BME280;57398;52.032;4.376;2023-12-04T07:32:19;99601.97;;;1.38;100.00
70053;BME280;57398;52.032;4.376;2023-12-04T07:35:08;99607.06;;;1.38;100.00
70053;BME280;57398;52.032;4.376;2023-12-04T07:37:56;99145.78;;;1.38;100.00
70053;BME280;57398;52.032;4.376;2023-12-04T07:40:45;99244.16;;;1.42;100.00
70053;BME280;57398;52.032;4.376;2023-12-04T07:43:33;99181.59;;;1.44;100.00
70053;BME280;57398;52.032;4.376;2023-12-04T07:46:22;99115.25;;;1.43;100.00
70053;BME280;57398;52.032;4.376;2023-12-04T07:49:10;99059.13;;;1.48;100.00
70053;BME280;57398;52.032;4.376;2023-12-04T07:51:58;99189.44;;;1.50;100.00
70053;BME280;57398;52.032;4.376;2023-12-04T07:54:47;99169.75;;;1.50;100.00
70053;BME280;57398;52.032;4.376;2023-12-04T07:57:35;99215.81;;;1.50;100.00
70053;BME280;57398;52.032;4.376;2023-12-04T08:00:23;99141.19;;;1.53;100.00
70053;BME280;57398;52.032;4.376;2023-12-04T08:03:13;99110.50;;;1.53;100.00
70053;BME280;57398;52.032;4.376;2023-12-04T08:06:02;99126.44;;;1.55;100.00
70053;BME280;57398;52.032;4.376;2023-12-04T08:08:50;99079.97;;;1.58;100.00
70053;BME280;57398;52.032;4.376;2023-12-04T08:11:39;99099.25;;;1.61;100.00
70053;BME280;57398;52.032;4.376;2023-12-04T08:14:27;99123.28;;;1.60;100.00
70053;BME280;57398;52.032;4.376;2023-12-04T08:17:17;99097.28;;;1.63;100.00
70053;BME280;57398;52.032;4.376;2023-12-04T08:20:10;99113.63;;;1.62;100.00
70053;BME280;57398;52.032;4.376;2023-12-04T08:23:08;99102.00;;;1.66;100.00
70053;BME280;57398;52.032;4.376;2023-12-04T08:25:56;99113.41;;;1.70;100.00
70053;BME280;57398;52.032;4.376;2023-12-04T08:28:44;99116.56;;;1.65;100.00
70053;BME280;57398;52.032;4.376;2023-12-04T08:31:32;99098.44;;;1.67;100.00
70053;BME280;57398;52.032;4.376;2023-12-04T08:34:20;99100.22;;;1.66;100.00
70053;BME280;57398;52.032;4.376;2023-12-04T08:37:09;99090.97;;;1.72;100.00
70053;BME280;57398;52.032;4.376;2023-12-04T08:39:57;99105.13;;;1.68;100.00
70053;BME280;57398;52.032;4.376;2023-12-04T08:42:46;99092.94;;;1.70;100.00
70053;BME280;57398;52.032;4.376;2023-12-04T08:45:34;99086.63;;;1.73;100.00
70053;BME280;57398;52.032;4.376;2023-12-04T08:48:22;99092.50;;;1.73;100.00
70053;BME280;57398;52.032;4.376;2023-12-04T08:51:15;99084.25;;;1.71;100.00
70053;BME280;57398;52.032;4.376;2023-12-04T08:54:04;99084.41;;;1.76;100.00
70053;BME280;57398;52.032;4.376;2023-12-04T08:57:04;99101.94;;;1.79;100.00
70053;BME280;57398;52.032;4.376;2023-12-04T08:59:52;99094.03;;;1.81;100.00
70053;BME280;57398;52.032;4.376;2023-12-04T09:02:40;99104.09;;;1.82;100.00
70053;BME280;57398;52.032;4.376;2023-12-04T09:05:39;99095.44;;;1.83;100.00
70053;BME280;57398;52.032;4.376;2023-12-04T09:08:27;99093.06;;;1.82;100.00
70053;BME280;57398;52.032;4.376;2023-12-04T09:11:26;99086.94;;;1.83;100.00
70053;BME280;57398;52.032;4.376;2023-12-04T09:14:15;99114.91;;;1.84;100.00
70053;BME280;57398;52.032;4.376;2023-12-04T09:17:04;99097.00;;;1.84;100.00
70053;BME280;57398;52.032;4.376;2023-12-04T09:19:52;99106.25;;;1.85;100.00
70053;BME280;57398;52.032;4.376;2023-12-04T09:22:41;99125.56;;;1.88;100.00
70053;BME280;57398;52.032;4.376;2023-12-04T09:25:38;99145.44;;;1.93;100.00
70053;BME280;57398;52.032;4.376;2023-12-04T09:28:28;99101.31;;;1.91;100.00
70053;BME280;57398;52.032;4.376;2023-12-04T09:31:16;99074.13;;;1.89;100.00
70053;BME280;57398;52.032;4.376;2023-12-04T09:34:05;99089.47;;;1.89;100.00
70053;BME280;57398;52.032;4.376;2023-12-04T09:36:53;99101.31;;;1.91;100.00
70053;BME280;57398;52.032;4.376;2023-12-04T09:39:54;99124.72;;;1.94;100.00
70053;BME280;57398;52.032;4.376;2023-12-04T09:42:42;99108.97;;;1.97;100.00
70053;BME280;57398;52.032;4.376;2023-12-04T09:45:32;99109.34;;;1.94;100.00
70053;BME280;57398;52.032;4.376;2023-12-04T09:48:21;99139.69;;;1.97;100.00
70053;BME280;57398;52.032;4.376;2023-12-04T09:51:10;99148.75;;;2.00;100.00
70053;BME280;57398;52.032;4.376;2023-12-04T09:54:02;99118.41;;;1.97;100.00
70053;BME280;57398;52.032;4.376;2023-12-04T09:56:50;99114.66;;;1.99;100.00
70053;BME280;57398;52.032;4.376;2023-12-04T09:59:39;99136.72;;;2.00;100.00
70053;BME280;57398;52.032;4.376;2023-12-04T10:02:29;99146.53;;;2.03;100.00
70053;BME280;57398;52.032;4.376;2023-12-04T10:05:18;99146.78;;;2.02;100.00
70053;BME280;57398;52.032;4.376;2023-12-04T10:08:06;99138.09;;;2.03;100.00
70053;BME280;57398;52.032;4.376;2023-12-04T10:10:54;99166.84;;;2.05;100.00
70053;BME280;57398;52.032;4.376;2023-12-04T10:13:43;99132.94;;;2.09;100.00
70053;BME280;57398;52.032;4.376;2023-12-04T10:16:46;99169.19;;;2.13;100.00
70053;BME280;57398;52.032;4.376;2023-12-04T10:19:35;99198.13;;;2.20;100.00
70053;BME280;57398;52.032;4.376;2023-12-04T10:22:25;99247.75;;;2.26;100.00
70053;BME280;57398;52.032;4.376;2023-12-04T10:25:14;99235.50;;;2.35;100.00
70053;BME280;57398;52.032;4.376;2023-12-04T10:28:08;99315.09;;;2.40;100.00
70053;BME280;57398;52.032;4.376;2023-12-04T10:30:56;99345.66;;;2.48;100.00
70053;BME280;57398;52.032;4.376;2023-12-04T10:33:45;99371.03;;;2.63;100.00
70053;BME280;57398;52.032;4.376;2023-12-04T10:36:38;99417.16;;;2.69;100.00
70053;BME280;57398;52.032;4.376;2023-12-04T10:39:26;99422.88;;;2.71;100.00
70053;BME280;57398;52.032;4.376;2023-12-04T10:42:25;99420.66;;;2.82;100.00
70053;BME280;57398;52.032;4.376;2023-12-04T10:45:14;99444.13;;;2.85;100.00
70053;BME280;57398;52.032;4.376;2023-12-04T10:48:02;99435.41;;;2.93;100.00
70053;BME280;57398;52.032;4.376;2023-12-04T10:50:52;99468.97;;;2.98;100.00
70053;BME280;57398;52.032;4.376;2023-12-04T10:53:41;99486.09;;;3.04;100.00
70053;BME280;57398;52.032;4.376;2023-12-04T10:56:36;99527.38;;;3.03;100.00
70053;BME280;57398;52.032;4.376;2023-12-04T10:59:27;99510.97;;;3.04;100.00
70053;BME280;57398;52.032;4.376;2023-12-04T11:02:21;99448.03;;;3.01;100.00
70053;BME280;57398;52.032;4.376;2023-12-04T11:05:13;99430.28;;;2.93;100.00
70053;BME280;57398;52.032;4.376;2023-12-04T11:08:05;99430.50;;;2.98;100.00
70053;BME280;57398;52.032;4.376;2023-12-04T11:11:06;99456.75;;;3.00;100.00
70053;BME280;57398;52.032;4.376;2023-12-04T11:13:59;99417.25;;;3.01;100.00
70053;BME280;57398;52.032;4.376;2023-12-04T11:16:50;99405.44;;;3.00;100.00
70053;BME280;57398;52.032;4.376;2023-12-04T11:19:47;99391.44;;;2.96;100.00
70053;BME280;57398;52.032;4.376;2023-12-04T11:22:38;99392.22;;;2.97;100.00
70053;BME280;57398;52.032;4.376;2023-12-04T11:25:27;99354.69;;;3.02;100.00
70053;BME280;57398;52.032;4.376;2023-12-04T11:28:18;99242.09;;;2.94;100.00
70053;BME280;57398;52.032;4.376;2023-12-04T11:31:07;99170.31;;;2.87;100.00
70053;BME280;57398;52.032;4.376;2023-12-04T11:34:01;99141.72;;;2.84;100.00
70053;BME280;57398;52.032;4.376;2023-12-04T11:36:50;99085.94;;;2.79;100.00
70053;BME280;57398;52.032;4.376;2023-12-04T11:39:39;98986.00;;;2.72;100.00
70053;BME280;57398;52.032;4.376;2023-12-04T11:42:30;98948.63;;;2.65;100.00
70053;BME280;57398;52.032;4.376;2023-12-04T11:45:20;98928.31;;;2.63;100.00
70053;BME280;57398;52.032;4.376;2023-12-04T11:48:08;98887.81;;;2.54;100.00
70053;BME280;57398;52.032;4.376;2023-12-04T11:50:57;98864.81;;;2.47;100.00
70053;BME280;57398;52.032;4.376;2023-12-04T11:53:45;98880.00;;;2.48;100.00
70053;BME280;57398;52.032;4.376;2023-12-04T11:56:33;99178.28;;;2.47;100.00
70053;BME280;57398;52.032;4.376;2023-12-04T11:59:21;99339.75;;;2.47;100.00
70053;BME280;57398;52.032;4.376;2023-12-04T12:02:11;99326.53;;;2.37;100.00
70053;BME280;57398;52.032;4.376;2023-12-04T12:04:59;99270.94;;;2.38;100.00
70053;BME280;57398;52.032;4.376;2023-12-04T12:07:49;99325.16;;;2.41;100.00
70053;BME280;57398;52.032;4.376;2023-12-04T12:10:37;99351.56;;;2.48;100.00
70053;BME280;57398;52.032;4.376;2023-12-04T12:13:25;99336.50;;;2.65;100.00
70053;BME280;57398;52.032;4.376;2023-12-04T12:16:13;99316.13;;;2.77;100.00
70053;BME280;57398;52.032;4.376;2023-12-04T12:19:03;99232.69;;;2.81;100.00
70053;BME280;57398;52.032;4.376;2023-12-04T12:21:52;99218.06;;;2.82;100.00
70053;BME280;57398;52.032;4.376;2023-12-04T12:24:40;99207.31;;;2.73;100.00
70053;BME280;57398;52.032;4.376;2023-12-04T12:27:30;99186.84;;;2.66;100.00
70053;BME280;57398;52.032;4.376;2023-12-04T12:30:18;99176.00;;;2.64;100.00
70053;BME280;57398;52.032;4.376;2023-12-04T12:33:07;99202.78;;;2.68;100.00
70053;BME280;57398;52.032;4.376;2023-12-04T12:35:57;99184.44;;;2.71;100.00
70053;BME280;57398;52.032;4.376;2023-12-04T12:38:50;99224.00;;;2.82;100.00
70053;BME280;57398;52.032;4.376;2023-12-04T12:41:38;99191.63;;;2.88;100.00
70053;BME280;57398;52.032;4.376;2023-12-04T12:44:27;99168.53;;;2.88;100.00
70053;BME280;57398;52.032;4.376;2023-12-04T12:47:15;99120.63;;;2.82;100.00
70053;BME280;57398;52.032;4.376;2023-12-04T12:50:07;99141.78;;;2.77;100.00
70053;BME280;57398;52.032;4.376;2023-12-04T12:53:01;99002.41;;;2.71;100.00
70053;BME280;57398;52.032;4.376;2023-12-04T12:55:49;98926.50;;;2.70;100.00
70053;BME280;57398;52.032;4.376;2023-12-04T12:58:37;98998.00;;;2.79;100.00
70053;BME280;57398;52.032;4.376;2023-12-04T13:01:30;98938.69;;;2.75;100.00
70053;BME280;57398;52.032;4.376;2023-12-04T13:04:18;99092.28;;;2.77;100.00
70053;BME280;57398;52.032;4.376;2023-12-04T13:07:06;99166.06;;;2.75;100.00
70053;BME280;57398;52.032;4.376;2023-12-04T13:09:57;99203.16;;;2.72;100.00
70053;BME280;57398;52.032;4.376;2023-12-04T13:12:45;99211.88;;;2.64;100.00
70053;BME280;57398;52.032;4.376;2023-12-04T13:15:33;99221.16;;;2.59;100.00
70053;BME280;57398;52.032;4.376;2023-12-04T13:18:21;99231.47;;;2.52;100.00
70053;BME280;57398;52.032;4.376;2023-12-04T13:21:09;99230.50;;;2.46;100.00
70053;BME280;57398;52.032;4.376;2023-12-04T13:23:58;99238.41;;;2.38;100.00
70053;BME280;57398;52.032;4.376;2023-12-04T13:26:47;99239.25;;;2.32;100.00
70053;BME280;57398;52.032;4.376;2023-12-04T13:29:35;99237.47;;;2.33;100.00
70053;BME280;57398;52.032;4.376;2023-12-04T13:32:23;99240.03;;;2.33;100.00
70053;BME280;57398;52.032;4.376;2023-12-04T13:35:11;99230.78;;;2.32;100.00
70053;BME280;57398;52.032;4.376;2023-12-04T13:38:01;99226.81;;;2.36;100.00
70053;BME280;57398;52.032;4.376;2023-12-04T13:40:49;99220.47;;;2.38;100.00
70053;BME280;57398;52.032;4.376;2023-12-04T13:43:47;99208.22;;;2.47;100.00
70053;BME280;57398;52.032;4.376;2023-12-04T13:46:37;99212.16;;;2.49;100.00
70053;BME280;57398;52.032;4.376;2023-12-04T13:49:25;99195.78;;;2.50;100.00
70053;BME280;57398;52.032;4.376;2023-12-04T13:52:14;99204.09;;;2.46;100.00
70053;BME280;57398;52.032;4.376;2023-12-04T13:55:02;99199.78;;;2.40;100.00
70053;BME280;57398;52.032;4.376;2023-12-04T13:57:58;99192.75;;;2.22;100.00
70053;BME280;57398;52.032;4.376;2023-12-04T14:00:58;99188.22;;;2.24;100.00
70053;BME280;57398;52.032;4.376;2023-12-04T14:03:47;99194.56;;;2.15;100.00
70053;BME280;57398;52.032;4.376;2023-12-04T14:06:35;99183.97;;;2.11;100.00
70053;BME280;57398;52.032;4.376;2023-12-04T14:09:24;99194.59;;;2.08;100.00
70053;BME280;57398;52.032;4.376;2023-12-04T14:12:12;99201.69;;;2.06;100.00
70053;BME280;57398;52.032;4.376;2023-12-04T14:15:00;99186.19;;;1.87;100.00
70053;BME280;57398;52.032;4.376;2023-12-04T14:17:51;99198.00;;;1.95;100.00
70053;BME280;57398;52.032;4.376;2023-12-04T14:20:39;99187.75;;;1.95;100.00
70053;BME280;57398;52.032;4.376;2023-12-04T14:23:27;99179.69;;;1.92;100.00
70053;BME280;57398;52.032;4.376;2023-12-04T14:26:15;99173.03;;;1.84;100.00
70053;BME280;57398;52.032;4.376;2023-12-04T14:29:03;99161.41;;;1.81;100.00
70053;BME280;57398;52.032;4.376;2023-12-04T14:31:53;99149.81;;;1.79;100.00
70053;BME280;57398;52.032;4.376;2023-12-04T14:34:43;99132.66;;;1.79;100.00
70053;BME280;57398;52.032;4.376;2023-12-04T14:37:32;99123.63;;;1.77;100.00
70053;BME280;57398;52.032;4.376;2023-12-04T14:40:20;99113.56;;;1.75;100.00
70053;BME280;57398;52.032;4.376;2023-12-04T14:43:08;99100.38;;;1.72;100.00
70053;BME280;57398;52.032;4.376;2023-12-04T14:45:57;99092.16;;;1.70;100.00
70053;BME280;57398;52.032;4.376;2023-12-04T14:48:45;99083.28;;;1.72;100.00
70053;BME280;57398;52.032;4.376;2023-12-04T14:51:35;99074.03;;;1.64;100.00
70053;BME280;57398;52.032;4.376;2023-12-04T14:54:23;99055.34;;;1.64;100.00
70053;BME280;57398;52.032;4.376;2023-12-04T14:57:24;99046.50;;;1.60;100.00